sensor_id;sensor_type;location;lat;lon;timestamp;P1;durP1;ratioP1;P2;durP2;ratioP2
34359;SDS011;20624;55.870;26.506;2022-10-16T00:01:11;9.75;;;1.80;;
34359;SDS011;20624;55.870;26.506;2022-10-16T00:03:40;3.78;;;1.25;;
34359;SDS011;20624;55.870;26.506;2022-10-16T00:06:10;7.60;;;1.55;;
34359;SDS011;20624;55.870;26.506;2022-10-16T00:08:39;1.75;;;0.85;;
34359;SDS011;20624;55.870;26.506;2022-10-16T00:11:08;3.97;;;1.20;;
34359;SDS011;20624;55.870;26.506;2022-10-16T00:13:36;4.78;;;1.23;;
34359;SDS011;20624;55.870;26.506;2022-10-16T00:16:05;3.03;;;1.10;;
34359;SDS011;20624;55.870;26.506;2022-10-16T00:18:33;2.50;;;0.80;;
34359;SDS011;20624;55.870;26.506;2022-10-16T00:21:08;5.75;;;1.27;;
34359;SDS011;20624;55.870;26.506;2022-10-16T00:23:36;4.30;;;1.20;;
34359;SDS011;20624;55.870;26.506;2022-10-16T00:26:06;4.68;;;1.48;;
34359;SDS011;20624;55.870;26.506;2022-10-16T00:28:36;3.85;;;1.05;;
34359;SDS011;20624;55.870;26.506;2022-10-16T00:31:06;3.00;;;0.98;;
34359;SDS011;20624;55.870;26.506;2022-10-16T00:33:34;4.72;;;1.20;;
34359;SDS011;20624;55.870;26.506;2022-10-16T00:36:02;3.97;;;1.20;;
34359;SDS011;20624;55.870;26.506;2022-10-16T00:38:33;2.85;;;1.00;;
34359;SDS011;20624;55.870;26.506;2022-10-16T00:41:01;3.83;;;1.08;;
34359;SDS011;20624;55.870;26.506;2022-10-16T00:43:37;5.20;;;1.40;;
34359;SDS011;20624;55.870;26.506;2022-10-16T00:46:10;4.28;;;1.08;;
34359;SDS011;20624;55.870;26.506;2022-10-16T00:48:39;2.38;;;1.00;;
34359;SDS011;20624;55.870;26.506;2022-10-16T00:51:07;2.45;;;1.08;;
34359;SDS011;20624;55.870;26.506;2022-10-16T00:53:35;5.20;;;1.17;;
34359;SDS011;20624;55.870;26.506;2022-10-16T00:56:06;3.17;;;1.15;;
34359;SDS011;20624;55.870;26.506;2022-10-16T00:58:34;4.00;;;1.10;;
34359;SDS011;20624;55.870;26.506;2022-10-16T01:01:02;4.80;;;1.33;;
34359;SDS011;20624;55.870;26.506;2022-10-16T01:03:32;3.63;;;1.10;;
34359;SDS011;20624;55.870;26.506;2022-10-16T01:09:11;1.55;;;0.73;;
34359;SDS011;20624;55.870;26.506;2022-10-16T01:11:53;5.10;;;1.23;;
34359;SDS011;20624;55.870;26.506;2022-10-16T01:14:34;5.93;;;1.23;;
34359;SDS011;20624;55.870;26.506;2022-10-16T01:17:06;3.25;;;0.90;;
34359;SDS011;20624;55.870;26.506;2022-10-16T01:19:50;3.80;;;1.02;;
34359;SDS011;20624;55.870;26.506;2022-10-16T01:22:22;2.60;;;1.00;;
34359;SDS011;20624;55.870;26.506;2022-10-16T01:24:53;2.63;;;1.02;;
34359;SDS011;20624;55.870;26.506;2022-10-16T01:27:26;4.57;;;1.05;;
34359;SDS011;20624;55.870;26.506;2022-10-16T01:30:11;2.65;;;0.98;;
34359;SDS011;20624;55.870;26.506;2022-10-16T01:32:52;4.00;;;1.10;;
34359;SDS011;20624;55.870;26.506;2022-10-16T01:35:24;4.00;;;1.05;;
34359;SDS011;20624;55.870;26.506;2022-10-16T01:37:58;3.15;;;1.02;;
34359;SDS011;20624;55.870;26.506;2022-10-16T01:40:33;2.20;;;0.68;;
34359;SDS011;20624;55.870;26.506;2022-10-16T01:43:06;3.45;;;1.27;;
34359;SDS011;20624;55.870;26.506;2022-10-16T01:45:35;4.50;;;1.17;;
34359;SDS011;20624;55.870;26.506;2022-10-16T01:48:03;4.38;;;1.10;;
34359;SDS011;20624;55.870;26.506;2022-10-16T01:50:35;3.67;;;1.10;;
34359;SDS011;20624;55.870;26.506;2022-10-16T01:53:05;5.90;;;1.52;;
34359;SDS011;20624;55.870;26.506;2022-10-16T01:55:36;49.20;;;35.63;;
34359;SDS011;20624;55.870;26.506;2022-10-16T01:58:05;14.98;;;13.43;;
34359;SDS011;20624;55.870;26.506;2022-10-16T02:00:35;10.88;;;2.08;;
34359;SDS011;20624;55.870;26.506;2022-10-16T02:03:06;5.20;;;1.40;;
34359;SDS011;20624;55.870;26.506;2022-10-16T02:05:44;1.77;;;0.85;;
34359;SDS011;20624;55.870;26.506;2022-10-16T02:08:13;2.72;;;1.00;;
34359;SDS011;20624;55.870;26.506;2022-10-16T02:10:40;6.35;;;1.40;;
34359;SDS011;20624;55.870;26.506;2022-10-16T02:13:10;4.25;;;0.95;;
34359;SDS011;20624;55.870;26.506;2022-10-16T02:15:39;5.05;;;1.17;;
34359;SDS011;20624;55.870;26.506;2022-10-16T02:18:07;112.38;;;65.82;;
34359;SDS011;20624;55.870;26.506;2022-10-16T02:20:41;151.50;;;79.70;;
34359;SDS011;20624;55.870;26.506;2022-10-16T02:23:12;149.55;;;84.70;;
34359;SDS011;20624;55.870;26.506;2022-10-16T02:25:41;35.58;;;18.05;;
34359;SDS011;20624;55.870;26.506;2022-10-16T02:28:15;3.20;;;0.82;;
34359;SDS011;20624;55.870;26.506;2022-10-16T02:30:46;2.28;;;1.00;;
34359;SDS011;20624;55.870;26.506;2022-10-16T02:33:19;4.25;;;1.00;;
34359;SDS011;20624;55.870;26.506;2022-10-16T02:35:49;3.13;;;1.05;;
34359;SDS011;20624;55.870;26.506;2022-10-16T02:38:18;3.05;;;1.15;;
34359;SDS011;20624;55.870;26.506;2022-10-16T02:40:47;2.15;;;0.82;;
34359;SDS011;20624;55.870;26.506;2022-10-16T02:43:15;6.18;;;1.42;;
34359;SDS011;20624;55.870;26.506;2022-10-16T02:45:43;2.83;;;1.13;;
34359;SDS011;20624;55.870;26.506;2022-10-16T02:48:12;3.80;;;1.00;;
34359;SDS011;20624;55.870;26.506;2022-10-16T02:50:41;3.03;;;0.93;;
34359;SDS011;20624;55.870;26.506;2022-10-16T02:53:09;4.00;;;1.25;;
34359;SDS011;20624;55.870;26.506;2022-10-16T02:55:36;3.38;;;1.00;;
34359;SDS011;20624;55.870;26.506;2022-10-16T02:58:04;2.90;;;0.98;;
34359;SDS011;20624;55.870;26.506;2022-10-16T03:00:32;3.55;;;0.90;;
34359;SDS011;20624;55.870;26.506;2022-10-16T03:03:00;3.60;;;1.05;;
34359;SDS011;20624;55.870;26.506;2022-10-16T03:05:28;2.60;;;0.90;;
34359;SDS011;20624;55.870;26.506;2022-10-16T03:07:56;3.35;;;1.02;;
34359;SDS011;20624;55.870;26.506;2022-10-16T03:10:26;9.35;;;1.88;;
34359;SDS011;20624;55.870;26.506;2022-10-16T03:12:54;4.47;;;1.20;;
34359;SDS011;20624;55.870;26.506;2022-10-16T03:15:22;3.55;;;1.10;;
34359;SDS011;20624;55.870;26.506;2022-10-16T03:17:50;3.05;;;0.98;;
34359;SDS011;20624;55.870;26.506;2022-10-16T03:20:18;3.20;;;1.00;;
34359;SDS011;20624;55.870;26.506;2022-10-16T03:22:46;6.60;;;1.40;;
34359;SDS011;20624;55.870;26.506;2022-10-16T03:25:14;3.20;;;1.02;;
34359;SDS011;20624;55.870;26.506;2022-10-16T03:27:42;3.13;;;0.98;;
34359;SDS011;20624;55.870;26.506;2022-10-16T03:30:11;3.67;;;1.23;;
34359;SDS011;20624;55.870;26.506;2022-10-16T03:32:39;4.25;;;1.10;;
34359;SDS011;20624;55.870;26.506;2022-10-16T03:35:07;2.97;;;0.98;;
34359;SDS011;20624;55.870;26.506;2022-10-16T03:37:35;2.47;;;1.00;;
34359;SDS011;20624;55.870;26.506;2022-10-16T03:40:03;4.40;;;1.08;;
34359;SDS011;20624;55.870;26.506;2022-10-16T03:42:31;4.15;;;1.10;;
34359;SDS011;20624;55.870;26.506;2022-10-16T03:44:59;3.97;;;0.93;;
34359;SDS011;20624;55.870;26.506;2022-10-16T03:47:27;2.28;;;0.90;;
34359;SDS011;20624;55.870;26.506;2022-10-16T03:49:55;2.72;;;1.10;;
34359;SDS011;20624;55.870;26.506;2022-10-16T03:52:23;3.33;;;1.05;;
34359;SDS011;20624;55.870;26.506;2022-10-16T03:54:51;3.35;;;0.85;;
34359;SDS011;20624;55.870;26.506;2022-10-16T03:57:19;2.67;;;0.90;;
34359;SDS011;20624;55.870;26.506;2022-10-16T03:59:47;2.65;;;0.85;;
34359;SDS011;20624;55.870;26.506;2022-10-16T04:02:16;2.22;;;0.80;;
34359;SDS011;20624;55.870;26.506;2022-10-16T04:04:43;3.78;;;1.05;;
34359;SDS011;20624;55.870;26.506;2022-10-16T04:07:11;2.83;;;1.10;;
34359;SDS011;20624;55.870;26.506;2022-10-16T04:09:40;3.90;;;1.00;;
34359;SDS011;20624;55.870;26.506;2022-10-16T04:12:08;3.17;;;1.10;;
34359;SDS011;20624;55.870;26.506;2022-10-16T04:14:36;4.03;;;1.33;;
34359;SDS011;20624;55.870;26.506;2022-10-16T04:17:06;2.17;;;0.90;;
34359;SDS011;20624;55.870;26.506;2022-10-16T04:19:34;6.70;;;1.50;;
34359;SDS011;20624;55.870;26.506;2022-10-16T04:22:02;1.83;;;0.77;;
34359;SDS011;20624;55.870;26.506;2022-10-16T04:24:30;4.50;;;1.00;;
34359;SDS011;20624;55.870;26.506;2022-10-16T04:26:58;2.40;;;0.75;;
34359;SDS011;20624;55.870;26.506;2022-10-16T04:29:26;2.65;;;0.90;;
34359;SDS011;20624;55.870;26.506;2022-10-16T04:31:55;2.65;;;0.93;;
34359;SDS011;20624;55.870;26.506;2022-10-16T04:34:22;3.50;;;0.93;;
34359;SDS011;20624;55.870;26.506;2022-10-16T04:36:50;4.82;;;1.00;;
34359;SDS011;20624;55.870;26.506;2022-10-16T04:39:18;1.83;;;0.82;;
34359;SDS011;20624;55.870;26.506;2022-10-16T04:41:46;3.85;;;1.08;;
34359;SDS011;20624;55.870;26.506;2022-10-16T04:44:14;6.40;;;1.23;;
34359;SDS011;20624;55.870;26.506;2022-10-16T04:46:42;5.25;;;1.13;;
34359;SDS011;20624;55.870;26.506;2022-10-16T04:49:10;6.18;;;3.78;;
34359;SDS011;20624;55.870;26.506;2022-10-16T04:51:38;3.50;;;1.10;;
34359;SDS011;20624;55.870;26.506;2022-10-16T04:54:08;3.15;;;1.02;;
34359;SDS011;20624;55.870;26.506;2022-10-16T04:56:35;27.63;;;25.23;;
34359;SDS011;20624;55.870;26.506;2022-10-16T04:59:09;84.57;;;56.42;;
34359;SDS011;20624;55.870;26.506;2022-10-16T05:01:37;1.77;;;0.80;;
34359;SDS011;20624;55.870;26.506;2022-10-16T05:04:05;4.35;;;1.80;;
34359;SDS011;20624;55.870;26.506;2022-10-16T05:06:33;2.15;;;0.70;;
34359;SDS011;20624;55.870;26.506;2022-10-16T05:09:01;6.40;;;5.78;;
34359;SDS011;20624;55.870;26.506;2022-10-16T05:11:29;3.38;;;1.17;;
34359;SDS011;20624;55.870;26.506;2022-10-16T05:13:57;4.75;;;1.10;;
34359;SDS011;20624;55.870;26.506;2022-10-16T05:16:26;3.00;;;0.80;;
34359;SDS011;20624;55.870;26.506;2022-10-16T05:18:54;29.85;;;18.65;;
34359;SDS011;20624;55.870;26.506;2022-10-16T05:21:42;3.55;;;0.93;;
34359;SDS011;20624;55.870;26.506;2022-10-16T05:24:13;2.17;;;0.80;;
34359;SDS011;20624;55.870;26.506;2022-10-16T05:26:43;3.90;;;1.02;;
34359;SDS011;20624;55.870;26.506;2022-10-16T05:29:11;3.63;;;1.10;;
34359;SDS011;20624;55.870;26.506;2022-10-16T05:31:40;2.88;;;1.08;;
34359;SDS011;20624;55.870;26.506;2022-10-16T05:34:08;3.85;;;1.08;;
34359;SDS011;20624;55.870;26.506;2022-10-16T05:36:35;4.20;;;0.98;;
34359;SDS011;20624;55.870;26.506;2022-10-16T05:39:03;2.58;;;0.90;;
34359;SDS011;20624;55.870;26.506;2022-10-16T05:41:31;2.20;;;0.90;;
34359;SDS011;20624;55.870;26.506;2022-10-16T05:43:59;3.40;;;1.10;;
34359;SDS011;20624;55.870;26.506;2022-10-16T05:46:27;3.22;;;1.02;;
34359;SDS011;20624;55.870;26.506;2022-10-16T05:48:55;4.35;;;1.20;;
34359;SDS011;20624;55.870;26.506;2022-10-16T05:51:23;2.00;;;0.80;;
34359;SDS011;20624;55.870;26.506;2022-10-16T05:53:51;2.33;;;0.85;;
34359;SDS011;20624;55.870;26.506;2022-10-16T05:56:19;5.25;;;1.10;;
34359;SDS011;20624;55.870;26.506;2022-10-16T05:58:48;1.65;;;0.80;;
34359;SDS011;20624;55.870;26.506;2022-10-16T06:01:17;3.53;;;0.90;;
34359;SDS011;20624;55.870;26.506;2022-10-16T06:03:45;1.23;;;0.60;;
34359;SDS011;20624;55.870;26.506;2022-10-16T06:06:19;2.15;;;0.70;;
34359;SDS011;20624;55.870;26.506;2022-10-16T06:08:48;2.47;;;0.82;;
34359;SDS011;20624;55.870;26.506;2022-10-16T06:11:16;4.97;;;1.10;;
34359;SDS011;20624;55.870;26.506;2022-10-16T06:13:51;2.58;;;1.00;;
34359;SDS011;20624;55.870;26.506;2022-10-16T06:16:19;1.13;;;0.60;;
34359;SDS011;20624;55.870;26.506;2022-10-16T06:18:47;3.67;;;1.00;;
34359;SDS011;20624;55.870;26.506;2022-10-16T06:21:16;1.58;;;0.63;;
34359;SDS011;20624;55.870;26.506;2022-10-16T06:23:46;4.50;;;1.02;;
34359;SDS011;20624;55.870;26.506;2022-10-16T06:26:15;3.10;;;1.00;;
34359;SDS011;20624;55.870;26.506;2022-10-16T06:28:44;4.93;;;1.13;;
34359;SDS011;20624;55.870;26.506;2022-10-16T06:31:13;3.10;;;0.80;;
34359;SDS011;20624;55.870;26.506;2022-10-16T06:33:41;2.95;;;0.80;;
34359;SDS011;20624;55.870;26.506;2022-10-16T06:36:11;2.42;;;0.90;;
34359;SDS011;20624;55.870;26.506;2022-10-16T06:38:40;3.92;;;1.00;;
34359;SDS011;20624;55.870;26.506;2022-10-16T06:41:12;2.55;;;1.00;;
34359;SDS011;20624;55.870;26.506;2022-10-16T06:43:41;2.03;;;0.88;;
34359;SDS011;20624;55.870;26.506;2022-10-16T06:46:09;2.60;;;0.90;;
34359;SDS011;20624;55.870;26.506;2022-10-16T06:48:37;2.15;;;0.80;;
34359;SDS011;20624;55.870;26.506;2022-10-16T06:51:06;3.45;;;1.00;;
34359;SDS011;20624;55.870;26.506;2022-10-16T06:53:36;2.83;;;0.90;;
34359;SDS011;20624;55.870;26.506;2022-10-16T06:56:25;4.15;;;1.05;;
34359;SDS011;20624;55.870;26.506;2022-10-16T06:58:54;2.28;;;0.80;;
34359;SDS011;20624;55.870;26.506;2022-10-16T07:01:23;2.05;;;0.80;;
34359;SDS011;20624;55.870;26.506;2022-10-16T07:03:51;3.80;;;1.05;;
34359;SDS011;20624;55.870;26.506;2022-10-16T07:06:20;4.18;;;1.00;;
34359;SDS011;20624;55.870;26.506;2022-10-16T07:08:48;3.83;;;1.10;;
34359;SDS011;20624;55.870;26.506;2022-10-16T07:11:18;3.13;;;0.80;;
34359;SDS011;20624;55.870;26.506;2022-10-16T07:13:46;2.90;;;0.82;;
34359;SDS011;20624;55.870;26.506;2022-10-16T07:16:31;2.78;;;0.85;;
34359;SDS011;20624;55.870;26.506;2022-10-16T07:19:02;4.75;;;1.17;;
34359;SDS011;20624;55.870;26.506;2022-10-16T07:21:33;2.40;;;0.73;;
34359;SDS011;20624;55.870;26.506;2022-10-16T07:24:10;8.13;;;1.60;;
34359;SDS011;20624;55.870;26.506;2022-10-16T07:26:39;3.45;;;0.98;;
34359;SDS011;20624;55.870;26.506;2022-10-16T07:29:11;4.68;;;1.10;;
34359;SDS011;20624;55.870;26.506;2022-10-16T07:31:41;3.45;;;0.90;;
34359;SDS011;20624;55.870;26.506;2022-10-16T07:34:10;2.60;;;0.90;;
34359;SDS011;20624;55.870;26.506;2022-10-16T07:36:37;5.53;;;1.42;;
34359;SDS011;20624;55.870;26.506;2022-10-16T07:39:05;5.93;;;1.30;;
34359;SDS011;20624;55.870;26.506;2022-10-16T07:41:35;2.65;;;0.80;;
34359;SDS011;20624;55.870;26.506;2022-10-16T07:44:03;28.25;;;23.73;;
34359;SDS011;20624;55.870;26.506;2022-10-16T07:46:32;111.93;;;68.00;;
34359;SDS011;20624;55.870;26.506;2022-10-16T07:49:02;171.27;;;90.85;;
34359;SDS011;20624;55.870;26.506;2022-10-16T07:51:30;167.65;;;86.50;;
34359;SDS011;20624;55.870;26.506;2022-10-16T07:53:58;115.93;;;69.05;;
34359;SDS011;20624;55.870;26.506;2022-10-16T07:56:26;152.15;;;84.18;;
34359;SDS011;20624;55.870;26.506;2022-10-16T07:58:54;163.70;;;89.28;;
34359;SDS011;20624;55.870;26.506;2022-10-16T08:01:22;181.70;;;94.28;;
34359;SDS011;20624;55.870;26.506;2022-10-16T08:03:51;150.30;;;82.20;;
34359;SDS011;20624;55.870;26.506;2022-10-16T08:06:19;198.05;;;103.07;;
34359;SDS011;20624;55.870;26.506;2022-10-16T08:08:53;2.90;;;1.00;;
34359;SDS011;20624;55.870;26.506;2022-10-16T08:11:21;2.60;;;0.90;;
34359;SDS011;20624;55.870;26.506;2022-10-16T08:13:49;4.07;;;0.98;;
34359;SDS011;20624;55.870;26.506;2022-10-16T08:16:17;5.75;;;1.30;;
34359;SDS011;20624;55.870;26.506;2022-10-16T08:18:45;3.38;;;1.38;;
34359;SDS011;20624;55.870;26.506;2022-10-16T08:21:14;3.35;;;1.35;;
34359;SDS011;20624;55.870;26.506;2022-10-16T08:23:46;7.47;;;2.35;;
34359;SDS011;20624;55.870;26.506;2022-10-16T08:26:23;7.78;;;3.38;;
34359;SDS011;20624;55.870;26.506;2022-10-16T08:28:51;10.18;;;4.40;;
34359;SDS011;20624;55.870;26.506;2022-10-16T08:31:20;10.43;;;5.15;;
34359;SDS011;20624;55.870;26.506;2022-10-16T08:33:48;9.52;;;5.57;;
34359;SDS011;20624;55.870;26.506;2022-10-16T08:36:16;9.23;;;4.95;;
34359;SDS011;20624;55.870;26.506;2022-10-16T08:38:47;9.00;;;4.82;;
34359;SDS011;20624;55.870;26.506;2022-10-16T08:49:05;11.32;;;5.13;;
34359;SDS011;20624;55.870;26.506;2022-10-16T08:51:37;31.42;;;26.42;;
34359;SDS011;20624;55.870;26.506;2022-10-16T08:54:20;169.45;;;91.40;;
34359;SDS011;20624;55.870;26.506;2022-10-16T08:57:01;234.13;;;116.93;;
34359;SDS011;20624;55.870;26.506;2022-10-16T08:59:34;194.52;;;103.93;;
34359;SDS011;20624;55.870;26.506;2022-10-16T09:02:02;9.70;;;5.07;;
34359;SDS011;20624;55.870;26.506;2022-10-16T09:07:59;8.18;;;4.18;;
34359;SDS011;20624;55.870;26.506;2022-10-16T09:10:59;7.60;;;3.97;;
34359;SDS011;20624;55.870;26.506;2022-10-16T09:16:25;8.15;;;3.60;;
34359;SDS011;20624;55.870;26.506;2022-10-16T09:21:52;7.60;;;3.80;;
34359;SDS011;20624;55.870;26.506;2022-10-16T09:24:21;6.93;;;3.45;;
34359;SDS011;20624;55.870;26.506;2022-10-16T09:26:54;7.03;;;3.22;;
34359;SDS011;20624;55.870;26.506;2022-10-16T09:29:22;7.00;;;3.42;;
34359;SDS011;20624;55.870;26.506;2022-10-16T09:31:52;5.00;;;2.95;;
34359;SDS011;20624;55.870;26.506;2022-10-16T09:34:27;5.80;;;3.00;;
34359;SDS011;20624;55.870;26.506;2022-10-16T09:36:57;5.90;;;3.20;;
34359;SDS011;20624;55.870;26.506;2022-10-16T09:39:26;6.22;;;3.10;;
34359;SDS011;20624;55.870;26.506;2022-10-16T09:41:54;6.60;;;3.22;;
34359;SDS011;20624;55.870;26.506;2022-10-16T09:44:29;7.80;;;3.40;;
34359;SDS011;20624;55.870;26.506;2022-10-16T09:47:02;7.28;;;3.03;;
34359;SDS011;20624;55.870;26.506;2022-10-16T09:49:50;6.55;;;2.97;;
34359;SDS011;20624;55.870;26.506;2022-10-16T09:52:28;7.25;;;3.05;;
34359;SDS011;20624;55.870;26.506;2022-10-16T09:57:25;5.80;;;3.20;;
34359;SDS011;20624;55.870;26.506;2022-10-16T09:59:55;6.38;;;3.00;;
34359;SDS011;20624;55.870;26.506;2022-10-16T10:02:30;4.30;;;2.22;;
34359;SDS011;20624;55.870;26.506;2022-10-16T10:04:59;5.97;;;2.65;;
34359;SDS011;20624;55.870;26.506;2022-10-16T10:07:33;6.75;;;2.75;;
34359;SDS011;20624;55.870;26.506;2022-10-16T10:10:06;5.65;;;2.40;;
34359;SDS011;20624;55.870;26.506;2022-10-16T10:12:47;5.00;;;2.03;;
34359;SDS011;20624;55.870;26.506;2022-10-16T10:15:15;6.13;;;2.38;;
34359;SDS011;20624;55.870;26.506;2022-10-16T10:17:52;6.22;;;2.70;;
34359;SDS011;20624;55.870;26.506;2022-10-16T10:20:31;4.72;;;2.20;;
34359;SDS011;20624;55.870;26.506;2022-10-16T10:23:01;5.90;;;2.47;;
34359;SDS011;20624;55.870;26.506;2022-10-16T10:25:44;5.00;;;2.33;;
34359;SDS011;20624;55.870;26.506;2022-10-16T10:28:38;4.38;;;2.42;;
34359;SDS011;20624;55.870;26.506;2022-10-16T10:36:10;3.47;;;2.05;;
34359;SDS011;20624;55.870;26.506;2022-10-16T10:38:59;3.28;;;2.03;;
34359;SDS011;20624;55.870;26.506;2022-10-16T10:49:18;5.35;;;1.67;;
34359;SDS011;20624;55.870;26.506;2022-10-16T11:05:17;4.47;;;2.03;;
34359;SDS011;20624;55.870;26.506;2022-10-16T11:07:49;6.72;;;2.25;;
34359;SDS011;20624;55.870;26.506;2022-10-16T11:10:18;7.65;;;2.50;;
34359;SDS011;20624;55.870;26.506;2022-10-16T11:12:55;3.28;;;1.40;;
34359;SDS011;20624;55.870;26.506;2022-10-16T11:15:35;2.78;;;1.60;;
34359;SDS011;20624;55.870;26.506;2022-10-16T11:18:16;6.85;;;2.05;;
34359;SDS011;20624;55.870;26.506;2022-10-16T11:21:16;6.65;;;1.60;;
34359;SDS011;20624;55.870;26.506;2022-10-16T11:24:19;3.58;;;1.52;;
34359;SDS011;20624;55.870;26.506;2022-10-16T11:27:03;4.72;;;1.70;;
34359;SDS011;20624;55.870;26.506;2022-10-16T11:29:31;6.10;;;1.60;;
34359;SDS011;20624;55.870;26.506;2022-10-16T11:32:04;3.08;;;1.67;;
34359;SDS011;20624;55.870;26.506;2022-10-16T11:34:50;6.60;;;2.25;;
34359;SDS011;20624;55.870;26.506;2022-10-16T11:37:20;6.88;;;2.10;;
34359;SDS011;20624;55.870;26.506;2022-10-16T11:39:52;3.78;;;1.50;;
34359;SDS011;20624;55.870;26.506;2022-10-16T11:42:27;4.82;;;1.77;;
34359;SDS011;20624;55.870;26.506;2022-10-16T11:45:00;5.70;;;1.60;;
34359;SDS011;20624;55.870;26.506;2022-10-16T11:50:30;2.97;;;1.55;;
34359;SDS011;20624;55.870;26.506;2022-10-16T11:53:11;2.55;;;1.58;;
34359;SDS011;20624;55.870;26.506;2022-10-16T11:56:05;3.42;;;1.30;;
34359;SDS011;20624;55.870;26.506;2022-10-16T11:58:41;3.20;;;1.45;;
34359;SDS011;20624;55.870;26.506;2022-10-16T12:04:21;3.97;;;1.42;;
34359;SDS011;20624;55.870;26.506;2022-10-16T12:07:13;4.35;;;1.45;;
34359;SDS011;20624;55.870;26.506;2022-10-16T12:09:46;5.30;;;2.08;;
34359;SDS011;20624;55.870;26.506;2022-10-16T12:12:27;4.68;;;1.60;;
34359;SDS011;20624;55.870;26.506;2022-10-16T12:15:25;11.57;;;2.47;;
34359;SDS011;20624;55.870;26.506;2022-10-16T12:18:22;4.97;;;1.67;;
34359;SDS011;20624;55.870;26.506;2022-10-16T12:20:56;5.35;;;1.65;;
34359;SDS011;20624;55.870;26.506;2022-10-16T12:23:32;4.82;;;1.70;;
34359;SDS011;20624;55.870;26.506;2022-10-16T12:26:00;4.13;;;1.67;;
34359;SDS011;20624;55.870;26.506;2022-10-16T12:28:30;3.75;;;1.90;;
34359;SDS011;20624;55.870;26.506;2022-10-16T12:31:02;2.45;;;1.20;;
34359;SDS011;20624;55.870;26.506;2022-10-16T12:33:35;3.75;;;1.40;;
34359;SDS011;20624;55.870;26.506;2022-10-16T12:36:04;8.10;;;1.85;;
34359;SDS011;20624;55.870;26.506;2022-10-16T12:38:37;4.32;;;1.48;;
34359;SDS011;20624;55.870;26.506;2022-10-16T12:41:07;8.40;;;1.60;;
34359;SDS011;20624;55.870;26.506;2022-10-16T12:43:36;6.05;;;1.33;;
34359;SDS011;20624;55.870;26.506;2022-10-16T12:46:20;8.23;;;1.90;;
34359;SDS011;20624;55.870;26.506;2022-10-16T12:49:06;7.65;;;1.70;;
34359;SDS011;20624;55.870;26.506;2022-10-16T12:51:36;3.92;;;1.42;;
34359;SDS011;20624;55.870;26.506;2022-10-16T12:54:10;7.35;;;1.88;;
34359;SDS011;20624;55.870;26.506;2022-10-16T13:00:11;7.25;;;2.58;;
34359;SDS011;20624;55.870;26.506;2022-10-16T13:13:57;5.25;;;1.45;;
34359;SDS011;20624;55.870;26.506;2022-10-16T13:16:50;5.43;;;1.52;;
34359;SDS011;20624;55.870;26.506;2022-10-16T13:19:32;5.70;;;1.63;;
34359;SDS011;20624;55.870;26.506;2022-10-16T13:22:10;3.13;;;1.25;;
34359;SDS011;20624;55.870;26.506;2022-10-16T13:29:43;13.90;;;9.93;;
34359;SDS011;20624;55.870;26.506;2022-10-16T13:32:11;14.02;;;11.57;;
34359;SDS011;20624;55.870;26.506;2022-10-16T13:34:44;19.08;;;17.13;;
34359;SDS011;20624;55.870;26.506;2022-10-16T13:37:16;43.13;;;38.42;;
34359;SDS011;20624;55.870;26.506;2022-10-16T13:39:44;10.55;;;3.78;;
34359;SDS011;20624;55.870;26.506;2022-10-16T13:42:23;24.70;;;22.33;;
34359;SDS011;20624;55.870;26.506;2022-10-16T13:44:54;92.78;;;60.22;;
34359;SDS011;20624;55.870;26.506;2022-10-16T13:47:23;45.10;;;40.35;;
34359;SDS011;20624;55.870;26.506;2022-10-16T13:52:26;50.22;;;41.05;;
34359;SDS011;20624;55.870;26.506;2022-10-16T13:54:54;106.07;;;63.20;;
34359;SDS011;20624;55.870;26.506;2022-10-16T13:57:27;63.17;;;48.88;;
34359;SDS011;20624;55.870;26.506;2022-10-16T13:59:55;2.90;;;1.10;;
34359;SDS011;20624;55.870;26.506;2022-10-16T14:02:30;3.20;;;1.17;;
34359;SDS011;20624;55.870;26.506;2022-10-16T14:05:01;3.15;;;1.27;;
34359;SDS011;20624;55.870;26.506;2022-10-16T14:07:32;3.83;;;1.25;;
34359;SDS011;20624;55.870;26.506;2022-10-16T14:10:04;5.28;;;1.60;;
34359;SDS011;20624;55.870;26.506;2022-10-16T14:12:33;3.13;;;1.25;;
34359;SDS011;20624;55.870;26.506;2022-10-16T14:15:01;4.75;;;1.25;;
34359;SDS011;20624;55.870;26.506;2022-10-16T14:17:32;2.58;;;1.25;;
34359;SDS011;20624;55.870;26.506;2022-10-16T14:20:03;3.13;;;1.10;;
34359;SDS011;20624;55.870;26.506;2022-10-16T14:22:36;1.88;;;0.80;;
34359;SDS011;20624;55.870;26.506;2022-10-16T14:27:56;6.20;;;1.60;;
34359;SDS011;20624;55.870;26.506;2022-10-16T14:30:25;3.10;;;1.10;;
34359;SDS011;20624;55.870;26.506;2022-10-16T14:35:22;3.08;;;1.13;;
34359;SDS011;20624;55.870;26.506;2022-10-16T14:37:54;5.28;;;1.38;;
34359;SDS011;20624;55.870;26.506;2022-10-16T14:40:45;3.83;;;1.13;;
34359;SDS011;20624;55.870;26.506;2022-10-16T14:43:24;2.67;;;1.00;;
34359;SDS011;20624;55.870;26.506;2022-10-16T14:45:54;3.67;;;1.20;;
34359;SDS011;20624;55.870;26.506;2022-10-16T14:48:23;3.63;;;1.20;;
34359;SDS011;20624;55.870;26.506;2022-10-16T14:50:51;2.92;;;1.05;;
34359;SDS011;20624;55.870;26.506;2022-10-16T14:53:19;3.50;;;1.20;;
34359;SDS011;20624;55.870;26.506;2022-10-16T14:55:46;4.95;;;1.27;;
34359;SDS011;20624;55.870;26.506;2022-10-16T14:58:19;3.33;;;1.17;;
34359;SDS011;20624;55.870;26.506;2022-10-16T15:00:47;3.95;;;1.20;;
34359;SDS011;20624;55.870;26.506;2022-10-16T15:03:15;4.13;;;1.40;;
34359;SDS011;20624;55.870;26.506;2022-10-16T15:05:43;3.28;;;1.23;;
34359;SDS011;20624;55.870;26.506;2022-10-16T15:08:11;7.03;;;1.42;;
34359;SDS011;20624;55.870;26.506;2022-10-16T15:10:42;7.13;;;1.50;;
34359;SDS011;20624;55.870;26.506;2022-10-16T15:13:11;3.35;;;0.90;;
34359;SDS011;20624;55.870;26.506;2022-10-16T15:15:46;3.72;;;1.30;;
34359;SDS011;20624;55.870;26.506;2022-10-16T15:18:15;7.38;;;1.75;;
34359;SDS011;20624;55.870;26.506;2022-10-16T15:20:48;5.72;;;1.70;;
34359;SDS011;20624;55.870;26.506;2022-10-16T15:23:16;5.80;;;1.50;;
34359;SDS011;20624;55.870;26.506;2022-10-16T15:28:12;2.78;;;1.10;;
34359;SDS011;20624;55.870;26.506;2022-10-16T15:30:41;6.07;;;1.63;;
34359;SDS011;20624;55.870;26.506;2022-10-16T15:33:13;5.80;;;1.42;;
34359;SDS011;20624;55.870;26.506;2022-10-16T15:35:42;9.48;;;1.83;;
34359;SDS011;20624;55.870;26.506;2022-10-16T15:38:14;4.68;;;1.33;;
34359;SDS011;20624;55.870;26.506;2022-10-16T15:40:42;4.32;;;1.40;;
34359;SDS011;20624;55.870;26.506;2022-10-16T15:43:10;5.10;;;1.40;;
34359;SDS011;20624;55.870;26.506;2022-10-16T15:45:37;6.90;;;1.50;;
34359;SDS011;20624;55.870;26.506;2022-10-16T15:48:05;6.25;;;1.88;;
34359;SDS011;20624;55.870;26.506;2022-10-16T15:50:33;3.92;;;1.30;;
34359;SDS011;20624;55.870;26.506;2022-10-16T15:53:00;6.38;;;1.58;;
34359;SDS011;20624;55.870;26.506;2022-10-16T15:55:28;5.25;;;1.40;;
34359;SDS011;20624;55.870;26.506;2022-10-16T15:57:56;48.88;;;38.58;;
34359;SDS011;20624;55.870;26.506;2022-10-16T16:00:23;54.83;;;44.88;;
34359;SDS011;20624;55.870;26.506;2022-10-16T16:02:52;74.22;;;53.42;;
34359;SDS011;20624;55.870;26.506;2022-10-16T16:05:21;130.25;;;74.88;;
34359;SDS011;20624;55.870;26.506;2022-10-16T16:07:49;152.18;;;83.18;;
34359;SDS011;20624;55.870;26.506;2022-10-16T16:10:17;160.65;;;87.43;;
34359;SDS011;20624;55.870;26.506;2022-10-16T16:12:48;171.30;;;88.43;;
34359;SDS011;20624;55.870;26.506;2022-10-16T16:15:21;176.70;;;93.53;;
34359;SDS011;20624;55.870;26.506;2022-10-16T16:17:49;4.53;;;1.20;;
34359;SDS011;20624;55.870;26.506;2022-10-16T16:20:16;4.22;;;1.38;;